Time;durP1;ratioP1;P1;durP2;ratioP2;P2;SDS_P1;SDS_P2;PMS_P1;PMS_P2;Temp;Humidity;BMP_temperature;BMP_pressure;BME280_temperature;BME280_humidity;BME280_pressure;Samples;Min_cycle;Max_cycle;Signal;HPM_P1;HPM_P2
2022/09/18 00:00:01;;;;;;;0.00;0.00;;;;;;;;;;6247928;23;20007;-77
2022/09/18 00:02:27;;;;;;;0.00;0.00;;;;;;;;;;6248757;23;20467;-78
2022/09/18 00:04:53;;;;;;;1.55;0.70;;;;;;;;;;6246422;23;20026;-78
2022/09/18 00:07:20;;;;;;;3.60;3.50;;;;;;;;;;6247637;23;20087;-78
2022/09/18 00:09:46;;;;;;;0.00;0.00;;;;;;;;;;6246903;23;20000;-78
2022/09/18 00:12:13;;;;;;;0.00;0.00;;;;;;;;;;6246150;23;20000;-79
2022/09/18 00:14:39;;;;;;;0.00;0.00;;;;;;;;;;6244861;23;20004;-78
2022/09/18 00:17:05;;;;;;;0.00;0.00;;;;;;;;;;6244005;23;20035;-79
2022/09/18 00:19:32;;;;;;;0.00;0.00;;;;;;;;;;6244106;22;20004;-78
2022/09/18 00:21:58;;;;;;;0.32;0.32;;;;;;;;;;6244771;23;20035;-78
2022/09/18 00:24:24;;;;;;;0.00;0.00;;;;;;;;;;6244784;23;20052;-79
2022/09/18 00:26:51;;;;;;;0.00;0.00;;;;;;;;;;6254098;23;20004;-77
2022/09/18 00:29:17;;;;;;;0.00;0.00;;;;;;;;;;6243899;23;20031;-80
2022/09/18 00:31:44;;;;;;;0.35;0.35;;;;;;;;;;6243726;22;20005;-80
2022/09/18 00:34:13;;;;;;;0.00;0.00;;;;;;;;;;6242184;23;20019;-80
2022/09/18 00:36:40;;;;;;;0.00;0.00;;;;;;;;;;6245628;22;20012;-80
2022/09/18 00:39:07;;;;;;;0.00;0.00;;;;;;;;;;6243535;23;20030;-78
2022/09/18 00:41:38;;;;;;;0.00;0.00;;;;;;;;;;6241932;23;20032;-79
2022/09/18 00:44:23;;;;;;;0.00;0.00;;;;;;;;;;6243770;22;20425;-78
2022/09/18 00:46:50;;;;;;;0.00;0.00;;;;;;;;;;6245797;23;20005;-78
2022/09/18 00:49:18;;;;;;;0.00;0.00;;;;;;;;;;6245292;22;20004;-78
2022/09/18 00:51:45;;;;;;;0.90;0.90;;;;;;;;;;6245482;23;20310;-78
2022/09/18 00:54:19;;;;;;;0.00;0.00;;;;;;;;;;6244717;23;20000;-78
2022/09/18 00:56:46;;;;;;;0.00;0.00;;;;;;;;;;6245479;23;20011;-78
2022/09/18 00:59:15;;;;;;;0.00;0.00;;;;;;;;;;6245441;23;19997;-78
2022/09/18 01:01:41;;;;;;;0.00;0.00;;;;;;;;;;6245392;22;20000;-79
2022/09/18 01:04:14;;;;;;;0.00;0.00;;;;;;;;;;6242982;23;20008;-78
2022/09/18 01:06:53;;;;;;;0.00;0.00;;;;;;;;;;6243225;23;20008;-80
2022/09/18 01:09:42;;;;;;;0.00;0.00;;;;;;;;;;6243215;23;20004;-79
2022/09/18 01:12:09;;;;;;;1.05;1.05;;;;;;;;;;6243750;22;19997;-78
2022/09/18 01:14:38;;;;;;;0.00;0.00;;;;;;;;;;6244572;22;20004;-78
2022/09/18 01:17:15;;;;;;;0.00;0.00;;;;;;;;;;6243038;23;20360;-78
2022/09/18 01:19:47;;;;;;;0.00;0.00;;;;;;;;;;6243156;23;20004;-80
2022/09/18 01:22:23;;;;;;;0.00;0.00;;;;;;;;;;6244246;23;20010;-79
2022/09/18 01:25:02;;;;;;;0.00;0.00;;;;;;;;;;6242943;23;20042;-78
2022/09/18 01:27:40;;;;;;;0.75;0.75;;;;;;;;;;6244771;23;20010;-78
2022/09/18 01:30:08;;;;;;;0.00;0.00;;;;;;;;;;6243616;23;20004;-78
2022/09/18 01:32:34;;;;;;;0.00;0.00;;;;;;;;;;6243165;23;20440;-79
2022/09/18 01:35:16;;;;;;;0.00;0.00;;;;;;;;;;6245442;23;20445;-79
2022/09/18 01:37:58;;;;;;;0.00;0.00;;;;;;;;;;6244876;23;20004;-79
2022/09/18 01:40:28;;;;;;;0.05;0.05;;;;;;;;;;6244354;23;20031;-80
2022/09/18 01:42:56;;;;;;;0.10;0.10;;;;;;;;;;6244003;23;20024;-78
2022/09/18 01:45:31;;;;;;;0.00;0.00;;;;;;;;;;6248557;22;20016;-78
2022/09/18 01:47:59;;;;;;;44.95;8.98;;;;;;;;;;6246892;23;20012;-79
2022/09/18 01:50:27;;;;;;;0.00;0.00;;;;;;;;;;6247900;22;20341;-79
2022/09/18 01:53:07;;;;;;;0.55;0.55;;;;;;;;;;6247330;23;20005;-78
2022/09/18 01:55:34;;;;;;;7.43;1.15;;;;;;;;;;6248425;23;20429;-79
2022/09/18 01:58:06;;;;;;;1.45;1.35;;;;;;;;;;6247161;22;20012;-78
2022/09/18 02:00:34;;;;;;;0.00;0.00;;;;;;;;;;6246722;23;20000;-79
2022/09/18 02:03:04;;;;;;;0.47;0.47;;;;;;;;;;6244370;23;20019;-77
2022/09/18 02:05:39;;;;;;;0.10;0.10;;;;;;;;;;6244963;23;20024;-79
2022/09/18 02:08:27;;;;;;;0.03;0.03;;;;;;;;;;6246915;23;19996;-78
2022/09/18 02:10:56;;;;;;;0.00;0.00;;;;;;;;;;6248782;22;20083;-80
2022/09/18 02:13:26;;;;;;;0.00;0.00;;;;;;;;;;6246776;23;20005;-79
2022/09/18 02:15:55;;;;;;;0.00;0.00;;;;;;;;;;6245644;23;20035;-79
2022/09/18 02:18:26;;;;;;;1.85;1.85;;;;;;;;;;6245769;23;20000;-79
2022/09/18 02:20:53;;;;;;;0.00;0.00;;;;;;;;;;6246645;23;20000;-79
2022/09/18 02:23:20;;;;;;;0.10;0.10;;;;;;;;;;6245187;23;20004;-79
2022/09/18 02:25:52;;;;;;;0.00;0.00;;;;;;;;;;6257559;23;20030;-80
2022/09/18 02:28:19;;;;;;;0.00;0.00;;;;;;;;;;6252797;22;20011;-78
2022/09/18 02:30:46;;;;;;;0.00;0.00;;;;;;;;;;6244927;23;20039;-78
2022/09/18 02:33:24;;;;;;;0.00;0.00;;;;;;;;;;6261303;23;20000;-79
2022/09/18 02:35:56;;;;;;;0.00;0.00;;;;;;;;;;6269914;23;19992;-79
2022/09/18 02:38:30;;;;;;;0.25;0.25;;;;;;;;;;6264328;22;20000;-79
2022/09/18 02:41:04;;;;;;;0.00;0.00;;;;;;;;;;6269225;23;20024;-78
2022/09/18 02:43:40;;;;;;;0.40;0.40;;;;;;;;;;6269747;23;19976;-80
2022/09/18 02:46:06;;;;;;;0.00;0.00;;;;;;;;;;6246909;23;20004;-79
2022/09/18 02:48:39;;;;;;;0.63;0.63;;;;;;;;;;6246569;22;20004;-78
2022/09/18 02:51:20;;;;;;;0.00;0.00;;;;;;;;;;6247624;23;20075;-81
2022/09/18 02:53:56;;;;;;;1.15;1.15;;;;;;;;;;6251244;22;20424;-79
2022/09/18 02:56:44;;;;;;;0.00;0.00;;;;;;;;;;6240463;23;20023;-80
2022/09/18 02:59:10;;;;;;;0.30;0.30;;;;;;;;;;6248470;22;20387;-81
2022/09/18 03:01:38;;;;;;;0.00;0.00;;;;;;;;;;6248164;23;20310;-80
2022/09/18 03:04:05;;;;;;;5.75;5.55;;;;;;;;;;6252219;23;19997;-81
2022/09/18 03:06:32;;;;;;;0.00;0.00;;;;;;;;;;6250377;23;20008;-79
2022/09/18 03:08:58;;;;;;;0.70;0.70;;;;;;;;;;6248877;23;20004;-79
2022/09/18 03:11:25;;;;;;;2.35;1.13;;;;;;;;;;6248723;22;20079;-81
2022/09/18 03:13:51;;;;;;;0.90;0.90;;;;;;;;;;6249914;23;20000;-80
2022/09/18 03:16:17;;;;;;;0.00;0.00;;;;;;;;;;6249224;23;20000;-80
2022/09/18 03:18:44;;;;;;;0.00;0.00;;;;;;;;;;6249469;23;20002;-80
2022/09/18 03:21:10;;;;;;;0.00;0.00;;;;;;;;;;6248167;23;20004;-79
2022/09/18 03:23:37;;;;;;;0.28;0.28;;;;;;;;;;6250311;23;20321;-80
2022/09/18 03:26:03;;;;;;;2.85;2.75;;;;;;;;;;6249603;23;20010;-78
2022/09/18 03:28:33;;;;;;;0.00;0.00;;;;;;;;;;6250260;23;20000;-79
2022/09/18 03:30:59;;;;;;;0.00;0.00;;;;;;;;;;6249772;22;20000;-80
2022/09/18 03:33:25;;;;;;;0.00;0.00;;;;;;;;;;6248521;23;20004;-79
2022/09/18 03:35:52;;;;;;;0.00;0.00;;;;;;;;;;6253527;23;20110;-79
2022/09/18 03:38:18;;;;;;;0.60;0.60;;;;;;;;;;6251602;23;20000;-79
2022/09/18 03:40:45;;;;;;;0.00;0.00;;;;;;;;;;6248472;23;19997;-80
2022/09/18 03:43:12;;;;;;;0.13;0.13;;;;;;;;;;6249434;23;20035;-79
2022/09/18 03:45:38;;;;;;;0.68;0.65;;;;;;;;;;6248536;22;20000;-78
2022/09/18 03:48:05;;;;;;;0.00;0.00;;;;;;;;;;6249853;23;20004;-79
2022/09/18 03:50:31;;;;;;;0.00;0.00;;;;;;;;;;6249610;22;20455;-78
2022/09/18 03:52:57;;;;;;;0.20;0.20;;;;;;;;;;6250014;23;20036;-80
2022/09/18 03:55:24;;;;;;;2.72;2.47;;;;;;;;;;6249192;23;20004;-76
2022/09/18 03:57:51;;;;;;;0.95;0.95;;;;;;;;;;6245459;22;20430;-77
2022/09/18 04:00:17;;;;;;;1.17;1.17;;;;;;;;;;6245349;23;20004;-76
2022/09/18 04:02:44;;;;;;;1.67;1.60;;;;;;;;;;6245317;22;19996;-75
2022/09/18 04:05:10;;;;;;;0.28;0.28;;;;;;;;;;6245586;22;20000;-76
2022/09/18 04:07:37;;;;;;;0.00;0.00;;;;;;;;;;6243644;23;20040;-76
2022/09/18 04:10:04;;;;;;;0.00;0.00;;;;;;;;;;6243706;23;20008;-75
2022/09/18 04:12:30;;;;;;;1.25;0.90;;;;;;;;;;6245871;22;20054;-76
2022/09/18 04:14:56;;;;;;;0.00;0.00;;;;;;;;;;6245952;23;20429;-75
2022/09/18 04:17:23;;;;;;;0.00;0.00;;;;;;;;;;6243630;23;20003;-75
2022/09/18 04:19:50;;;;;;;0.00;0.00;;;;;;;;;;6242964;23;20004;-75
2022/09/18 04:22:16;;;;;;;0.00;0.00;;;;;;;;;;6244942;22;20433;-76
2022/09/18 04:24:44;;;;;;;53.20;27.00;;;;;;;;;;6245539;23;20524;-78
2022/09/18 04:27:10;;;;;;;0.00;0.00;;;;;;;;;;6245124;23;20004;-77
2022/09/18 04:29:37;;;;;;;2.85;2.75;;;;;;;;;;6251035;23;20019;-77
2022/09/18 04:32:04;;;;;;;3.35;3.22;;;;;;;;;;6251056;23;20030;-76
2022/09/18 04:34:31;;;;;;;0.00;0.00;;;;;;;;;;6254813;22;20004;-76
2022/09/18 04:36:57;;;;;;;18.10;4.68;;;;;;;;;;6258318;23;20011;-76
2022/09/18 04:39:23;;;;;;;0.32;0.32;;;;;;;;;;6258168;23;19997;-75
2022/09/18 04:41:50;;;;;;;5.07;1.10;;;;;;;;;;6249624;23;19996;-75
2022/09/18 04:44:17;;;;;;;0.50;0.50;;;;;;;;;;6245991;22;20000;-76
2022/09/18 04:46:43;;;;;;;0.70;0.43;;;;;;;;;;6245338;23;20024;-75
2022/09/18 04:49:09;;;;;;;0.00;0.00;;;;;;;;;;6242873;23;20038;-76
2022/09/18 04:51:36;;;;;;;0.32;0.32;;;;;;;;;;6246628;23;20352;-77
2022/09/18 04:54:02;;;;;;;11.05;5.50;;;;;;;;;;6256814;23;20008;-75
2022/09/18 04:56:28;;;;;;;0.77;0.77;;;;;;;;;;6245106;23;20004;-76
2022/09/18 04:58:55;;;;;;;1.75;0.50;;;;;;;;;;6244722;23;20039;-77
2022/09/18 05:01:21;;;;;;;2.05;1.38;;;;;;;;;;6243557;22;20372;-76
2022/09/18 05:03:48;;;;;;;1.55;0.93;;;;;;;;;;6242714;23;20035;-76
2022/09/18 05:06:14;;;;;;;18.52;4.95;;;;;;;;;;6244739;22;20010;-76
2022/09/18 05:08:40;;;;;;;5.65;3.42;;;;;;;;;;6243052;23;20425;-76
2022/09/18 05:11:07;;;;;;;1.33;0.77;;;;;;;;;;6245201;23;20078;-76
2022/09/18 05:13:33;;;;;;;4.18;2.03;;;;;;;;;;6244766;23;20038;-76
2022/09/18 05:16:00;;;;;;;7.50;1.67;;;;;;;;;;6247575;23;20308;-78
2022/09/18 05:18:26;;;;;;;0.20;0.20;;;;;;;;;;6243595;23;20024;-76
2022/09/18 05:20:53;;;;;;;2.13;2.03;;;;;;;;;;6245920;22;20023;-77
2022/09/18 05:23:20;;;;;;;0.57;0.57;;;;;;;;;;6245501;23;20412;-80
2022/09/18 05:25:46;;;;;;;19.02;1.17;;;;;;;;;;6247476;23;20019;-80
2022/09/18 05:28:14;;;;;;;8.43;3.03;;;;;;;;;;6249063;23;20501;-81
2022/09/18 05:30:40;;;;;;;20.00;1.50;;;;;;;;;;6260458;22;20000;-79
2022/09/18 05:33:07;;;;;;;1.83;1.65;;;;;;;;;;6270223;23;20016;-80
2022/09/18 05:35:35;;;;;;;1.77;0.85;;;;;;;;;;6267448;23;20039;-79
2022/09/18 05:38:01;;;;;;;4.47;0.80;;;;;;;;;;6245614;23;20000;-80
2022/09/18 05:40:31;;;;;;;1.05;1.02;;;;;;;;;;6244697;23;20008;-77
2022/09/18 05:42:58;;;;;;;1.77;1.67;;;;;;;;;;6243228;23;20077;-77
2022/09/18 05:45:25;;;;;;;1.40;1.30;;;;;;;;;;6243527;23;20001;-76
2022/09/18 05:47:55;;;;;;;1.65;1.58;;;;;;;;;;6244090;23;20012;-77
2022/09/18 05:50:22;;;;;;;0.32;0.32;;;;;;;;;;6244316;22;20299;-77
2022/09/18 05:52:56;;;;;;;0.30;0.30;;;;;;;;;;6244154;23;20370;-77
2022/09/18 05:55:22;;;;;;;0.70;0.63;;;;;;;;;;6245979;23;20024;-75
2022/09/18 05:57:52;;;;;;;2.90;2.70;;;;;;;;;;6244938;23;20336;-75
2022/09/18 06:00:18;;;;;;;11.35;4.68;;;;;;;;;;6245669;22;19997;-75
2022/09/18 06:02:52;;;;;;;2.67;1.92;;;;;;;;;;6246323;23;20067;-76
2022/09/18 06:05:18;;;;;;;0.98;0.98;;;;;;;;;;6245101;23;20015;-76
2022/09/18 06:07:44;;;;;;;0.77;0.73;;;;;;;;;;6244125;23;20008;-77
2022/09/18 06:10:11;;;;;;;2.38;2.17;;;;;;;;;;6244350;23;20086;-76
2022/09/18 06:12:38;;;;;;;3.70;1.25;;;;;;;;;;6244156;23;20043;-76
2022/09/18 06:15:05;;;;;;;0.90;0.30;;;;;;;;;;6244509;23;20441;-78
2022/09/18 06:17:32;;;;;;;17.90;1.35;;;;;;;;;;6246401;22;20459;-77
2022/09/18 06:19:58;;;;;;;2.40;0.88;;;;;;;;;;6246188;23;20004;-77
2022/09/18 06:22:25;;;;;;;0.28;0.28;;;;;;;;;;6244338;23;20027;-75
2022/09/18 06:24:52;;;;;;;0.98;0.98;;;;;;;;;;6246306;22;20298;-77
2022/09/18 06:27:18;;;;;;;22.38;5.22;;;;;;;;;;6246139;22;20008;-75
2022/09/18 06:29:44;;;;;;;2.92;1.60;;;;;;;;;;6245280;23;20050;-78
2022/09/18 06:32:11;;;;;;;1.45;0.73;;;;;;;;;;6244368;23;20043;-75
2022/09/18 06:34:37;;;;;;;3.58;3.30;;;;;;;;;;6243992;23;20449;-77
2022/09/18 06:37:04;;;;;;;0.98;0.98;;;;;;;;;;6244321;23;20011;-76
2022/09/18 06:39:30;;;;;;;0.00;0.00;;;;;;;;;;6243358;23;20671;-75
2022/09/18 06:41:59;;;;;;;0.52;0.52;;;;;;;;;;6244397;23;20000;-75
2022/09/18 06:44:25;;;;;;;0.60;0.57;;;;;;;;;;6243827;23;20023;-75
2022/09/18 06:46:51;;;;;;;0.00;0.00;;;;;;;;;;6244285;23;20005;-75
2022/09/18 06:49:18;;;;;;;0.03;0.03;;;;;;;;;;6244767;23;20423;-75
2022/09/18 06:51:47;;;;;;;1.00;0.47;;;;;;;;;;6245165;23;20004;-75
2022/09/18 06:54:14;;;;;;;2.97;1.48;;;;;;;;;;6245610;22;20000;-75
2022/09/18 06:56:41;;;;;;;0.00;0.00;;;;;;;;;;6242974;23;20520;-77
2022/09/18 06:59:07;;;;;;;0.10;0.10;;;;;;;;;;6245093;23;20571;-76
2022/09/18 07:01:33;;;;;;;1.85;1.52;;;;;;;;;;6244358;22;20004;-76
2022/09/18 07:04:00;;;;;;;1.70;0.63;;;;;;;;;;6246012;23;20023;-76
2022/09/18 07:06:26;;;;;;;0.25;0.25;;;;;;;;;;6254306;23;20395;-75
2022/09/18 07:08:53;;;;;;;4.15;1.05;;;;;;;;;;6244780;23;20011;-75
2022/09/18 07:11:19;;;;;;;1.65;1.00;;;;;;;;;;6244021;23;20084;-74
2022/09/18 07:13:46;;;;;;;11.05;8.10;;;;;;;;;;6245263;23;20425;-75
2022/09/18 07:16:13;;;;;;;0.25;0.25;;;;;;;;;;6245506;22;20054;-76
2022/09/18 07:18:39;;;;;;;0.17;0.17;;;;;;;;;;6245311;22;19996;-75
2022/09/18 07:21:06;;;;;;;0.70;0.70;;;;;;;;;;6243921;23;20032;-76
2022/09/18 07:23:32;;;;;;;8.75;3.33;;;;;;;;;;6245097;23;20000;-77
2022/09/18 07:25:59;;;;;;;0.55;0.55;;;;;;;;;;6243761;23;20004;-77
2022/09/18 07:28:26;;;;;;;0.80;0.70;;;;;;;;;;6244615;22;20034;-79
2022/09/18 07:30:52;;;;;;;1.08;0.55;;;;;;;;;;6244033;23;20043;-77
2022/09/18 07:33:19;;;;;;;0.45;0.45;;;;;;;;;;6242818;23;20015;-77
2022/09/18 07:35:46;;;;;;;0.70;0.70;;;;;;;;;;6245160;22;20004;-77
2022/09/18 07:38:12;;;;;;;0.45;0.45;;;;;;;;;;6243686;22;20000;-76
2022/09/18 07:40:41;;;;;;;1.17;1.08;;;;;;;;;;6244125;23;20093;-76
2022/09/18 07:43:10;;;;;;;0.38;0.38;;;;;;;;;;6244400;22;20000;-76
2022/09/18 07:45:37;;;;;;;5.85;5.43;;;;;;;;;;6244604;23;19996;-77
2022/09/18 07:48:04;;;;;;;0.70;0.68;;;;;;;;;;6242791;23;20007;-77
2022/09/18 07:50:31;;;;;;;3.65;1.08;;;;;;;;;;6243921;23;20024;-77
2022/09/18 07:52:58;;;;;;;0.00;0.00;;;;;;;;;;6242847;23;20513;-76
2022/09/18 07:55:26;;;;;;;0.30;0.30;;;;;;;;;;6242502;23;20011;-76
2022/09/18 07:57:59;;;;;;;0.00;0.00;;;;;;;;;;6243122;22;20018;-76
2022/09/18 08:00:27;;;;;;;0.38;0.38;;;;;;;;;;6242678;23;20004;-77
2022/09/18 08:03:08;;;;;;;23.15;4.45;;;;;;;;;;6244571;22;20001;-76
2022/09/18 08:05:34;;;;;;;0.88;0.65;;;;;;;;;;6247548;23;20004;-76
2022/09/18 08:08:04;;;;;;;0.20;0.20;;;;;;;;;;6247472;23;20000;-76
2022/09/18 08:10:31;;;;;;;0.60;0.20;;;;;;;;;;6245361;22;19996;-76
2022/09/18 08:12:58;;;;;;;1.63;1.52;;;;;;;;;;6244977;23;20019;-76
2022/09/18 08:15:24;;;;;;;0.68;0.68;;;;;;;;;;6244933;22;20365;-76
2022/09/18 08:17:50;;;;;;;1.27;0.50;;;;;;;;;;6243312;23;20059;-76
2022/09/18 08:20:17;;;;;;;0.47;0.47;;;;;;;;;;6244782;22;20004;-76
2022/09/18 08:22:43;;;;;;;0.08;0.08;;;;;;;;;;6244687;22;20001;-76
2022/09/18 08:25:10;;;;;;;33.53;1.08;;;;;;;;;;6244363;22;20302;-77
2022/09/18 08:27:40;;;;;;;0.45;0.45;;;;;;;;;;6244101;23;20075;-79
2022/09/18 08:30:07;;;;;;;3.03;0.75;;;;;;;;;;6243097;23;20376;-76
2022/09/18 08:32:34;;;;;;;1.15;1.15;;;;;;;;;;6242750;23;20146;-76
2022/09/18 08:35:00;;;;;;;0.10;0.10;;;;;;;;;;6243635;22;20074;-76
2022/09/18 08:37:27;;;;;;;0.10;0.10;;;;;;;;;;6243743;23;20004;-75
2022/09/18 08:39:54;;;;;;;0.00;0.00;;;;;;;;;;6242421;23;20035;-79
2022/09/18 08:42:23;;;;;;;0.03;0.03;;;;;;;;;;6245328;22;20320;-79
2022/09/18 08:44:55;;;;;;;0.30;0.30;;;;;;;;;;6239637;23;20011;-79
2022/09/18 08:47:26;;;;;;;0.60;0.60;;;;;;;;;;6242526;23;20039;-78
2022/09/18 08:50:02;;;;;;;0.15;0.15;;;;;;;;;;6243612;23;20035;-77
2022/09/18 08:52:31;;;;;;;0.00;0.00;;;;;;;;;;6244313;23;20020;-77
2022/09/18 08:55:07;;;;;;;0.30;0.30;;;;;;;;;;6243069;22;20003;-77
2022/09/18 08:57:42;;;;;;;0.98;0.52;;;;;;;;;;6245410;22;20290;-78
2022/09/18 09:00:29;;;;;;;2.55;1.95;;;;;;;;;;6245593;22;20071;-75
2022/09/18 09:02:59;;;;;;;0.00;0.00;;;;;;;;;;6243879;23;20429;-76
2022/09/18 09:05:28;;;;;;;0.00;0.00;;;;;;;;;;6246651;23;20421;-77
2022/09/18 09:08:00;;;;;;;0.30;0.30;;;;;;;;;;6242744;23;20008;-77
2022/09/18 09:10:34;;;;;;;0.00;0.00;;;;;;;;;;6246396;23;20031;-81
2022/09/18 09:13:15;;;;;;;0.10;0.10;;;;;;;;;;6241676;23;20004;-80
2022/09/18 09:16:15;;;;;;;0.00;0.00;;;;;;;;;;6244712;23;20078;-80
2022/09/18 09:18:58;;;;;;;0.00;0.00;;;;;;;;;;6194902;22;20030;-80
2022/09/18 09:21:36;;;;;;;0.00;0.00;;;;;;;;;;6256967;22;20042;-80
2022/09/18 09:24:21;;;;;;;0.00;0.00;;;;;;;;;;6246982;23;20008;-80
2022/09/18 09:26:51;;;;;;;0.00;0.00;;;;;;;;;;6249577;23;20038;-80
2022/09/18 09:29:29;;;;;;;0.45;0.45;;;;;;;;;;6245070;23;20004;-81
2022/09/18 09:31:57;;;;;;;1.35;1.35;;;;;;;;;;6244586;23;20174;-81
2022/09/18 09:34:24;;;;;;;0.75;0.75;;;;;;;;;;6244671;23;20004;-82
2022/09/18 09:36:51;;;;;;;0.00;0.00;;;;;;;;;;6244615;23;20027;-81
2022/09/18 09:39:23;;;;;;;0.08;0.08;;;;;;;;;;6245232;23;20051;-82
2022/09/18 09:41:55;;;;;;;0.00;0.00;;;;;;;;;;6245754;23;20000;-80
2022/09/18 09:44:30;;;;;;;1.17;1.17;;;;;;;;;;6246144;22;19996;-80
2022/09/18 09:47:00;;;;;;;0.20;0.20;;;;;;;;;;6244250;23;20623;-80
2022/09/18 09:49:49;;;;;;;0.00;0.00;;;;;;;;;;6243521;23;20019;-80
2022/09/18 09:52:24;;;;;;;0.00;0.00;;;;;;;;;;6187501;22;20039;-81
2022/09/18 09:54:55;;;;;;;0.00;0.00;;;;;;;;;;6245717;22;20039;-80
2022/09/18 09:57:28;;;;;;;10.57;10.05;;;;;;;;;;6245136;22;20013;-80
2022/09/18 10:00:08;;;;;;;1.63;1.52;;;;;;;;;;6243942;23;20004;-78
2022/09/18 10:02:48;;;;;;;0.00;0.00;;;;;;;;;;6246361;22;19996;-78
2022/09/18 10:05:33;;;;;;;0.00;0.00;;;;;;;;;;6243953;23;20202;-79
2022/09/18 10:08:07;;;;;;;0.00;0.00;;;;;;;;;;6244422;23;20094;-80
2022/09/18 10:10:33;;;;;;;0.00;0.00;;;;;;;;;;6245925;23;20004;-80
2022/09/18 10:13:03;;;;;;;0.10;0.10;;;;;;;;;;6244146;22;20011;-80
2022/09/18 10:15:46;;;;;;;0.00;0.00;;;;;;;;;;6243302;23;20004;-79
2022/09/18 10:18:24;;;;;;;0.00;0.00;;;;;;;;;;6244548;23;20043;-79
2022/09/18 10:20:53;;;;;;;0.00;0.00;;;;;;;;;;6246062;23;20024;-79
2022/09/18 10:23:49;;;;;;;0.45;0.45;;;;;;;;;;6246456;22;20000;-78
2022/09/18 10:26:20;;;;;;;0.00;0.00;;;;;;;;;;6113981;22;20013;-77
2022/09/18 10:28:46;;;;;;;0.00;0.00;;;;;;;;;;6248369;22;20000;-77
2022/09/18 10:31:13;;;;;;;0.00;0.00;;;;;;;;;;6248473;23;20008;-79
2022/09/18 10:33:44;;;;;;;0.00;0.00;;;;;;;;;;6252699;22;20008;-79
2022/09/18 10:36:21;;;;;;;0.30;0.30;;;;;;;;;;6250211;23;20031;-78
2022/09/18 10:38:48;;;;;;;0.00;0.00;;;;;;;;;;6253439;22;20046;-78
2022/09/18 10:41:28;;;;;;;0.00;0.00;;;;;;;;;;6247464;22;20405;-79
2022/09/18 10:44:01;;;;;;;0.00;0.00;;;;;;;;;;6246534;22;20003;-79
2022/09/18 10:46:29;;;;;;;0.00;0.00;;;;;;;;;;6244508;23;20008;-78
2022/09/18 10:48:56;;;;;;;0.00;0.00;;;;;;;;;;6244746;23;20095;-78
2022/09/18 10:51:24;;;;;;;0.00;0.00;;;;;;;;;;6244616;23;20019;-79
2022/09/18 10:54:09;;;;;;;0.00;0.00;;;;;;;;;;6243931;23;20004;-79
2022/09/18 10:56:36;;;;;;;0.00;0.00;;;;;;;;;;6245916;23;20460;-79
2022/09/18 10:59:13;;;;;;;0.00;0.00;;;;;;;;;;6245883;23;20087;-78
2022/09/18 11:01:39;;;;;;;0.00;0.00;;;;;;;;;;6244125;23;20000;-79
2022/09/18 11:04:06;;;;;;;0.00;0.00;;;;;;;;;;6244314;22;20429;-79
2022/09/18 11:06:34;;;;;;;0.00;0.00;;;;;;;;;;6244523;23;20092;-78
2022/09/18 11:09:02;;;;;;;0.00;0.00;;;;;;;;;;6244751;23;20077;-78
2022/09/18 11:11:35;;;;;;;12.13;11.43;;;;;;;;;;6244802;23;20008;-78
2022/09/18 11:14:05;;;;;;;0.00;0.00;;;;;;;;;;6248592;23;20086;-78
2022/09/18 11:16:41;;;;;;;0.00;0.00;;;;;;;;;;6249449;22;20004;-77
2022/09/18 11:19:23;;;;;;;0.00;0.00;;;;;;;;;;6255542;23;20011;-78
2022/09/18 11:21:53;;;;;;;0.00;0.00;;;;;;;;;;6264335;22;20428;-77
2022/09/18 11:24:24;;;;;;;0.00;0.00;;;;;;;;;;6262886;22;20324;-79
2022/09/18 11:26:56;;;;;;;0.00;0.00;;;;;;;;;;6246767;23;20008;-76
2022/09/18 11:29:32;;;;;;;0.00;0.00;;;;;;;;;;6245380;23;20318;-77
2022/09/18 11:32:03;;;;;;;0.00;0.00;;;;;;;;;;6249599;22;20015;-77
2022/09/18 11:34:36;;;;;;;0.00;0.00;;;;;;;;;;6257657;22;20444;-79
2022/09/18 11:37:06;;;;;;;0.00;0.00;;;;;;;;;;6246634;23;20030;-77
2022/09/18 11:39:54;;;;;;;0.00;0.00;;;;;;;;;;6245874;23;20429;-77
2022/09/18 11:42:20;;;;;;;0.00;0.00;;;;;;;;;;6245117;23;20035;-79
2022/09/18 11:44:47;;;;;;;0.00;0.00;;;;;;;;;;6244380;23;20000;-76
2022/09/18 11:47:19;;;;;;;0.28;0.28;;;;;;;;;;6245604;23;20422;-78
2022/09/18 11:49:46;;;;;;;0.00;0.00;;;;;;;;;;6245098;22;20059;-79
2022/09/18 11:52:16;;;;;;;0.10;0.10;;;;;;;;;;6243175;23;20035;-78
2022/09/18 11:55:09;;;;;;;0.00;0.00;;;;;;;;;;6243598;23;20038;-77
2022/09/18 11:57:37;;;;;;;0.13;0.13;;;;;;;;;;6239502;22;20091;-77
2022/09/18 12:00:14;;;;;;;0.00;0.00;;;;;;;;;;6244292;23;20004;-77
2022/09/18 12:02:41;;;;;;;3.15;2.58;;;;;;;;;;6245655;23;20378;-77
2022/09/18 12:05:37;;;;;;;0.00;0.00;;;;;;;;;;6242915;23;20018;-76
2022/09/18 12:08:22;;;;;;;0.00;0.00;;;;;;;;;;6242523;23;20080;-77
2022/09/18 12:10:56;;;;;;;0.00;0.00;;;;;;;;;;6245310;22;20054;-77
2022/09/18 12:13:33;;;;;;;1.02;1.02;;;;;;;;;;6244972;23;20036;-77
2022/09/18 12:16:05;;;;;;;0.28;0.28;;;;;;;;;;6245488;22;20325;-76
2022/09/18 12:18:36;;;;;;;0.00;0.00;;;;;;;;;;6243603;23;20429;-78
2022/09/18 12:21:03;;;;;;;0.00;0.00;;;;;;;;;;6245557;23;20007;-76
2022/09/18 12:23:30;;;;;;;0.00;0.00;;;;;;;;;;6243909;22;20001;-77
2022/09/18 12:26:20;;;;;;;0.00;0.00;;;;;;;;;;6243607;23;20004;-79
2022/09/18 12:29:04;;;;;;;0.00;0.00;;;;;;;;;;6224618;23;20007;-76
2022/09/18 12:31:42;;;;;;;1.08;1.02;;;;;;;;;;6242649;23;20007;-77
2022/09/18 12:34:18;;;;;;;0.00;0.00;;;;;;;;;;6241113;23;20382;-76
2022/09/18 12:37:00;;;;;;;0.00;0.00;;;;;;;;;;6243828;22;20004;-78
2022/09/18 12:39:46;;;;;;;0.10;0.10;;;;;;;;;;6242342;23;20028;-77
2022/09/18 12:42:32;;;;;;;0.00;0.00;;;;;;;;;;6241317;23;20027;-77
2022/09/18 12:45:33;;;;;;;5.32;4.85;;;;;;;;;;6242736;23;20004;-76
2022/09/18 12:48:05;;;;;;;0.52;0.52;;;;;;;;;;6121925;23;20391;-77
2022/09/18 12:50:32;;;;;;;0.03;0.03;;;;;;;;;;6223999;22;20073;-77
2022/09/18 12:53:15;;;;;;;0.00;0.00;;;;;;;;;;6243307;22;20086;-76
2022/09/18 12:56:00;;;;;;;0.00;0.00;;;;;;;;;;6242804;22;20024;-76
2022/09/18 12:58:32;;;;;;;0.00;0.00;;;;;;;;;;6242692;23;20012;-76
2022/09/18 13:01:03;;;;;;;3.50;1.17;;;;;;;;;;6242655;23;20020;-76
2022/09/18 13:03:37;;;;;;;0.40;0.40;;;;;;;;;;6243483;23;20008;-76
2022/09/18 13:06:10;;;;;;;0.00;0.00;;;;;;;;;;6245030;22;20379;-77
2022/09/18 13:08:43;;;;;;;0.00;0.00;;;;;;;;;;6244850;22;20493;-77
2022/09/18 13:11:15;;;;;;;0.15;0.15;;;;;;;;;;6242973;23;20079;-77
2022/09/18 13:13:54;;;;;;;0.00;0.00;;;;;;;;;;6244130;22;20004;-77
2022/09/18 13:16:34;;;;;;;0.00;0.00;;;;;;;;;;6244190;23;20024;-76
2022/09/18 13:19:09;;;;;;;0.10;0.10;;;;;;;;;;6243274;23;20027;-76
2022/09/18 13:21:40;;;;;;;0.00;0.00;;;;;;;;;;6242588;23;20023;-76
2022/09/18 13:24:11;;;;;;;0.00;0.00;;;;;;;;;;6244807;23;20001;-76
2022/09/18 13:26:38;;;;;;;0.00;0.00;;;;;;;;;;6243346;23;20016;-76
2022/09/18 13:29:24;;;;;;;0.00;0.00;;;;;;;;;;6242761;23;20023;-76
2022/09/18 13:31:54;;;;;;;1.38;1.38;;;;;;;;;;6243107;23;20028;-77
2022/09/18 13:34:22;;;;;;;5.82;5.38;;;;;;;;;;6243238;23;20039;-77
2022/09/18 13:36:49;;;;;;;1.75;1.65;;;;;;;;;;6243859;23;20004;-77
2022/09/18 13:39:17;;;;;;;1.23;1.13;;;;;;;;;;6257459;22;20067;-74
2022/09/18 13:41:46;;;;;;;0.68;0.68;;;;;;;;;;6260570;22;20046;-77
2022/09/18 13:44:21;;;;;;;0.05;0.05;;;;;;;;;;6253999;22;20003;-77
2022/09/18 13:46:48;;;;;;;1.25;0.35;;;;;;;;;;6246701;23;20012;-77
2022/09/18 13:49:19;;;;;;;2.10;0.52;;;;;;;;;;6256702;22;20069;-76
2022/09/18 13:51:46;;;;;;;1.17;0.60;;;;;;;;;;6245542;23;20019;-77
2022/09/18 13:54:17;;;;;;;1.05;0.95;;;;;;;;;;6244098;22;20035;-77
2022/09/18 13:57:02;;;;;;;0.00;0.00;;;;;;;;;;6245936;23;20004;-77
2022/09/18 13:59:47;;;;;;;0.00;0.00;;;;;;;;;;6244349;22;20008;-76
2022/09/18 14:02:33;;;;;;;0.00;0.00;;;;;;;;;;6245470;23;20022;-77
2022/09/18 14:05:01;;;;;;;0.00;0.00;;;;;;;;;;6244403;23;20130;-78
2022/09/18 14:07:28;;;;;;;0.03;0.03;;;;;;;;;;6247199;22;20111;-80
2022/09/18 14:09:56;;;;;;;0.00;0.00;;;;;;;;;;6245004;23;20008;-79
2022/09/18 14:12:23;;;;;;;0.00;0.00;;;;;;;;;;6246279;23;20007;-77
2022/09/18 14:14:58;;;;;;;0.00;0.00;;;;;;;;;;6246733;23;20039;-76
2022/09/18 14:17:24;;;;;;;0.00;0.00;;;;;;;;;;6246383;23;20003;-76
2022/09/18 14:20:06;;;;;;;0.00;0.00;;;;;;;;;;6245630;23;20004;-76
2022/09/18 14:22:36;;;;;;;0.00;0.00;;;;;;;;;;6247097;22;20317;-77
2022/09/18 14:25:06;;;;;;;0.00;0.00;;;;;;;;;;6245970;22;20000;-76
2022/09/18 14:27:38;;;;;;;1.55;1.55;;;;;;;;;;6245781;22;20026;-77
2022/09/18 14:30:16;;;;;;;0.00;0.00;;;;;;;;;;6246035;23;20108;-77
2022/09/18 14:32:48;;;;;;;0.10;0.10;;;;;;;;;;6246325;22;20004;-75
2022/09/18 14:35:21;;;;;;;0.00;0.00;;;;;;;;;;6246578;22;20011;-76
2022/09/18 14:37:47;;;;;;;0.10;0.10;;;;;;;;;;6243647;23;20428;-77
2022/09/18 14:40:19;;;;;;;0.00;0.00;;;;;;;;;;6245996;23;20060;-77
2022/09/18 14:42:47;;;;;;;0.00;0.00;;;;;;;;;;6245732;22;20011;-76
2022/09/18 14:45:13;;;;;;;0.00;0.00;;;;;;;;;;6243797;23;20004;-77
2022/09/18 14:47:41;;;;;;;0.00;0.00;;;;;;;;;;6244439;23;20428;-77
2022/09/18 14:50:25;;;;;;;0.00;0.00;;;;;;;;;;6246090;22;20000;-76
2022/09/18 14:52:52;;;;;;;2.75;1.75;;;;;;;;;;6242919;23;20012;-77
2022/09/18 14:55:21;;;;;;;0.00;0.00;;;;;;;;;;6244338;23;20012;-78
2022/09/18 14:57:54;;;;;;;0.00;0.00;;;;;;;;;;6243988;23;20016;-76
2022/09/18 15:00:21;;;;;;;0.00;0.00;;;;;;;;;;6244661;22;20046;-76
2022/09/18 15:02:52;;;;;;;0.00;0.00;;;;;;;;;;6242798;23;20032;-76